Wind EuroAirport

Messzeit Windrichtung Windgeschwindigkeit [Knoten] Rückenwind Nordpiste [Knoten] METAR
2021-01-28 09:00 S 170° 6 - LFSB 280800Z 17006KT 3200 -RA BR FEW003 SCT013 BKN016 03/03 Q1009 TEMPO BKN008
2021-01-28 08:30 S 160° 6 - LFSB 280730Z 16006KT 3200 RA BR SCT011 OVC021 03/03 Q1009 TEMPO BKN008
2021-01-28 08:00 S 180° 4 - LFSB 280700Z 18004KT 5000 RA BR SCT025 OVC030 03/03 Q1009 TEMPO BKN008
2021-01-28 07:30 S 170° 5 - LFSB 280630Z 17005KT 4500 -RA BR FEW018 OVC031 03/03 Q1009 TEMPO BKN008
2021-01-28 07:04 SO 140° 8 - LFSB 280604Z 14008KT 4500 RA BR BKN033 OVC050 03/03 Q1010 TEMPO BKN008
2021-01-28 06:30 S 160° 6 - LFSB 280530Z AUTO 16006KT 5000 -RA BR FEW029/// BKN039/// BKN048/// ///TCU 03/02 Q1011 TEMPO RA BKN008
2021-01-28 06:00 S 170° 7 - LFSB 280500Z AUTO 17007KT 6000 RA FEW026/// BKN042/// BKN048/// ///CB 03/02 Q1012 TEMPO 4000 -RA BKN008
2021-01-28 05:30 S 180°
(140°–210°)
5 - LFSB 280430Z AUTO 18005KT 140V210 5000 RA BR BKN024/// OVC029/// ///TCU 02/02 Q1012 TEMPO NSW BKN008
2021-01-28 05:00 S 180° 5 - LFSB 280400Z AUTO 18005KT 5000 -RA BR FEW004/// BKN023/// BKN030/// ///CB 02/02 Q1013 TEMPO BKN008
2021-01-28 04:30 S 180°
(150°–220°)
6 - LFSB 280330Z AUTO 18006KT 150V220 5000 -RA BR FEW004/// OVC021/// ///CB 02/02 Q1013 TEMPO BKN008
2021-01-28 04:00 S 170° 5 - LFSB 280300Z AUTO 17005KT 5000 -RA BR FEW004/// OVC017/// ///CB 02/02 Q1013 TEMPO BKN008
2021-01-28 03:30 S 180°
(120°–220°)
6 - LFSB 280230Z AUTO 18006KT 120V220 5000 RA BR OVC017/// ///TCU 02/02 Q1014 TEMPO NSW BKN008
2021-01-28 03:00 S 160° 7 - LFSB 280200Z AUTO 16007KT 7000 FEW004 OVC017 02/02 Q1014 TEMPO 4000 -RA BKN008
2021-01-28 02:30 S 170°
(120°–230°)
6 - LFSB 280130Z AUTO 17006KT 120V230 6000 FEW004 OVC017 02/02 Q1015 TEMPO 4000 -RA BKN008
2021-01-28 02:00 S 160°
(120°–220°)
5 - LFSB 280100Z AUTO 16005KT 120V220 5000 BR FEW004 SCT014 OVC019 02/01 Q1015 TEMPO BKN008
2021-01-28 01:30 SO 150° 5 - LFSB 280030Z AUTO 15005KT 5000 BR FEW004 BKN014 OVC019 02/01 Q1015 TEMPO BKN008
2021-01-28 01:00 S 160°
(140°–200°)
5 - LFSB 280000Z AUTO 16005KT 140V200 5000 BR FEW004/// OVC011/// ///TCU 02/01 Q1016 TEMPO BKN008
2021-01-28 00:30 S 170°
(140°–220°)
5 - LFSB 272330Z AUTO 17005KT 140V220 5000 RA BR SCT004 OVC011 01/01 Q1016 TEMPO NSW BKN008
2021-01-28 00:00 S 160°
(130°–200°)
5 - LFSB 272300Z AUTO 16005KT 130V200 5000 BR FEW004 OVC011 01/01 Q1016 TEMPO BKN009
2021-01-27 23:30 SO 150°
(130°–200°)
3 - LFSB 272230Z AUTO 15003KT 130V200 5000 -DZ BR FEW005/// BKN010/// OVC016/// ///TCU 01/01 Q1016 TEMPO BKN009
2021-01-27 23:00 S 170°
(130°–190°)
4 - LFSB 272200Z AUTO 17004KT 130V190 5000 -RA BR BKN011/// OVC017/// ///CB 01/01 Q1016 TEMPO BKN009
2021-01-27 22:30 S 160°
(130°–190°)
4 - LFSB 272130Z AUTO 16004KT 130V190 5000 -RA BR FEW005/// BKN011/// OVC017/// ///CB 01/01 Q1016 TEMPO BKN009
2021-01-27 22:00 S 160° 5 - LFSB 272100Z AUTO 16005KT 4100 -RA BR BKN010/// BKN017/// BKN022/// ///TCU 01/01 Q1016 TEMPO BKN009
2021-01-27 21:30 S 160° 6 - LFSB 272030Z AUTO 16006KT 5000 -DZ BR BKN009/// OVC018/// ///CB 01/01 Q1016 TEMPO BKN009
2021-01-27 21:00 S 160° 5 - LFSB 272000Z AUTO 16005KT 5000 -RA BR FEW005/// BKN010/// OVC019/// ///CB 01/01 Q1016 TEMPO BKN011
2021-01-27 20:30 S 180°
(140°–260°)
5 0–1 LFSB 271930Z AUTO 18005KT 140V260 6000 -RA BKN009/// BKN020/// BKN030/// ///TCU 01/00 Q1016 TEMPO 4000 -RA BKN011
2021-01-27 20:00 S 160°
(120°–190°)
3 - LFSB 271900Z AUTO 16003KT 120V190 6000 -RA BKN010 BKN024 BKN030 01/00 Q1016 TEMPO 4000 -RA
2021-01-27 19:30 S 170° 3 - LFSB 271830Z AUTO 17003KT 5000 -RA BR FEW005/// BKN010/// BKN017/// ///TCU 01/00 Q1016 TEMPO 2500 RASN BKN011
2021-01-27 19:00 S 170° 3 - LFSB 271800Z 17003KT 7000 -RASN SCT011 BKN043 01/00 Q1016 R15/2900// NOSIG
2021-01-27 18:30 S 180°
(130°–220°)
3 - LFSB 271730Z 18003KT 130V220 8000 -RASN SCT011 BKN043 01/00 Q1016 R15/2900// NOSIG
2021-01-27 18:00 S 180° 4 - LFSB 271700Z 18004KT 8000 -RASN FEW003 SCT012 BKN043 01/00 Q1016 R15/2900// NOSIG
2021-01-27 17:30 S 180°
(150°–210°)
4 - LFSB 271630Z 18004KT 150V210 9000 FEW003 SCT011 BKN021 01/00 Q1016 R15/2900// NOSIG
2021-01-27 17:00 - 3 - LFSB 271600Z VRB03KT 7000 -RA FEW003 BKN011 BKN023 01/00 Q1016 R15/2900// NOSIG
2021-01-27 16:30 SO 130° 4 - LFSB 271530Z 13004KT 6000 FEW003 SCT010 BKN023 00/00 Q1016 R15/2900// NOSIG
2021-01-27 16:00 O 110° 4 - LFSB 271500Z 11004KT 2500 -SN FEW004 BKN012 BKN026 00/00 Q1016 R15/2900// TEMPO 1000 SN BKN003
2021-01-27 15:30 SO 120° 6 - LFSB 271430Z 12006KT 1500 -SN SCT003 BKN012 BKN026 00/00 Q1017 R15/2900// TEMPO 1000 SN BKN003
2021-01-27 15:00 S 160° 7 - LFSB 271400Z 16007KT 2000 -SN SCT003 BKN011 BKN030 00/M00 Q1017 R15/2900// TEMPO 1000 SN BKN003
2021-01-27 14:30 S 170° 8 - LFSB 271330Z 17008KT 1400 R15/1900U R33/1500N -SN BKN003 BKN013 00/M00 Q1017 R15/2900// TEMPO 1000 SN BKN003
2021-01-27 14:00 S 170°
(100°–220°)
3 - LFSB 271300Z 17003KT 100V220 1200 R15/1500N R33/1200N -SN BKN004 BKN010 00/M00 Q1017 TEMPO 1000 SN BKN003
2021-01-27 13:30 O 90° 6 - LFSB 271230Z 09006KT 2500 -SN FEW010 SCT016 BKN036 00/M00 Q1017 TEMPO 2000 SN BKN005
2021-01-27 13:00 SO 130°
(100°–170°)
9 - LFSB 271200Z 13009KT 100V170 2000 -SN SCT010 BKN016 BKN033 01/M01 Q1017 TEMPO 2000 SN BKN005
2021-01-27 12:30 SO 150°
(110°–220°)
5 - LFSB 271130Z 15005KT 110V220 9999 -SN FEW005 BKN033 BKN060 01/M01 Q1017 TEMPO 2000 SN BKN005
2021-01-27 12:00 SO 120° 8 - LFSB 271100Z 12008KT 9999 FEW005 SCT040 BKN060 01/M01 Q1017 TEMPO 2000 SN BKN005
2021-01-27 11:30 SO 140° 6 - LFSB 271030Z 14006KT 9999 FEW005 BKN063 01/M02 Q1017 TEMPO 2000 SN BKN005
2021-01-27 11:00 SO 120° 8 - LFSB 271000Z 12008KT 9999 FEW005 SCT033 BKN066 00/M01 Q1017 TEMPO 1500 SN BKN005
2021-01-27 10:30 SO 130° 7 - LFSB 270930Z 13007KT 9999 FEW005 SCT033 BKN073 M00/M01 Q1017 RESN TEMPO 1500 SN BKN005
2021-01-27 10:00 O 110° 10 - LFSB 270900Z 11010KT 4000 -SN SCT005 BKN033 BKN066 M01/M01 Q1017 TEMPO 1500 SN BKN005